sensor_id;sensor_type;location;lat;lon;timestamp;pressure;altitude;pressure_sealevel;temperature;humidity
47761;BME280;33524;55.434;38.520;2022-09-30T00:01:24;100157.53;;;9.12;100.00
47761;BME280;33524;55.434;38.520;2022-09-30T00:03:53;100160.25;;;9.11;100.00
47761;BME280;33524;55.434;38.520;2022-09-30T00:06:21;100171.47;;;9.13;100.00
47761;BME280;33524;55.434;38.520;2022-09-30T00:08:49;100173.47;;;9.09;100.00
47761;BME280;33524;55.434;38.520;2022-09-30T00:11:21;100186.47;;;9.11;100.00
47761;BME280;33524;55.434;38.520;2022-09-30T00:13:49;100177.78;;;9.10;100.00
47761;BME280;33524;55.434;38.520;2022-09-30T00:16:18;100176.22;;;9.07;100.00
47761;BME280;33524;55.434;38.520;2022-09-30T00:18:47;100171.16;;;9.04;100.00
47761;BME280;33524;55.434;38.520;2022-09-30T00:21:15;100170.25;;;9.05;100.00
47761;BME280;33524;55.434;38.520;2022-09-30T00:23:43;100170.84;;;9.09;100.00
47761;BME280;33524;55.434;38.520;2022-09-30T00:26:12;100187.53;;;9.08;100.00
47761;BME280;33524;55.434;38.520;2022-09-30T00:28:40;100179.03;;;9.04;100.00
47761;BME280;33524;55.434;38.520;2022-09-30T00:31:13;100181.47;;;9.07;100.00
47761;BME280;33524;55.434;38.520;2022-09-30T00:33:41;100177.88;;;9.08;100.00
47761;BME280;33524;55.434;38.520;2022-09-30T00:36:12;100193.44;;;9.12;100.00
47761;BME280;33524;55.434;38.520;2022-09-30T00:38:40;100176.81;;;9.11;100.00
47761;BME280;33524;55.434;38.520;2022-09-30T00:41:07;100176.22;;;9.07;100.00
47761;BME280;33524;55.434;38.520;2022-09-30T00:43:46;100176.41;;;9.04;100.00
47761;BME280;33524;55.434;38.520;2022-09-30T00:46:20;100181.66;;;9.04;100.00
47761;BME280;33524;55.434;38.520;2022-09-30T00:48:53;100186.91;;;9.04;100.00
47761;BME280;33524;55.434;38.520;2022-09-30T00:51:26;100180.94;;;9.02;100.00
47761;BME280;33524;55.434;38.520;2022-09-30T00:53:56;100183.47;;;9.04;100.00
47761;BME280;33524;55.434;38.520;2022-09-30T00:56:49;100191.53;;;9.01;100.00
47761;BME280;33524;55.434;38.520;2022-09-30T00:59:18;100194.88;;;9.03;100.00
47761;BME280;33524;55.434;38.520;2022-09-30T01:01:47;100195.19;;;8.98;100.00
47761;BME280;33524;55.434;38.520;2022-09-30T01:04:20;100198.06;;;8.95;100.00
47761;BME280;33524;55.434;38.520;2022-09-30T01:06:49;100206.66;;;8.97;100.00
47761;BME280;33524;55.434;38.520;2022-09-30T01:09:17;100205.50;;;9.01;100.00
47761;BME280;33524;55.434;38.520;2022-09-30T01:11:46;100202.22;;;9.11;100.00
47761;BME280;33524;55.434;38.520;2022-09-30T01:19:27;100188.59;;;9.05;100.00
47761;BME280;33524;55.434;38.520;2022-09-30T01:22:05;100195.59;;;9.05;100.00
47761;BME280;33524;55.434;38.520;2022-09-30T01:24:46;100192.47;;;9.00;100.00
47761;BME280;33524;55.434;38.520;2022-09-30T01:35:29;100200.13;;;8.90;100.00
47761;BME280;33524;55.434;38.520;2022-09-30T01:38:03;100197.50;;;8.90;100.00
47761;BME280;33524;55.434;38.520;2022-09-30T01:40:41;100199.63;;;8.85;100.00
47761;BME280;33524;55.434;38.520;2022-09-30T01:43:13;100202.25;;;8.85;100.00
47761;BME280;33524;55.434;38.520;2022-09-30T01:45:54;100206.03;;;8.81;100.00
47761;BME280;33524;55.434;38.520;2022-09-30T01:48:29;100206.13;;;8.79;100.00
47761;BME280;33524;55.434;38.520;2022-09-30T01:51:05;100202.84;;;8.76;100.00
47761;BME280;33524;55.434;38.520;2022-09-30T01:56:07;100208.09;;;8.76;100.00
47761;BME280;33524;55.434;38.520;2022-09-30T02:01:34;100200.25;;;8.76;100.00
47761;BME280;33524;55.434;38.520;2022-09-30T02:04:03;100198.25;;;8.66;100.00
47761;BME280;33524;55.434;38.520;2022-09-30T02:06:38;100192.28;;;8.64;100.00
47761;BME280;33524;55.434;38.520;2022-09-30T02:09:10;100197.28;;;8.67;100.00
47761;BME280;33524;55.434;38.520;2022-09-30T02:11:38;100206.22;;;8.65;100.00
47761;BME280;33524;55.434;38.520;2022-09-30T02:14:23;100219.97;;;8.68;100.00
47761;BME280;33524;55.434;38.520;2022-09-30T02:19:57;100208.53;;;8.69;100.00
47761;BME280;33524;55.434;38.520;2022-09-30T02:22:29;100218.81;;;8.73;100.00
47761;BME280;33524;55.434;38.520;2022-09-30T02:25:00;100226.22;;;8.66;100.00
47761;BME280;33524;55.434;38.520;2022-09-30T02:27:34;100229.16;;;8.61;100.00
47761;BME280;33524;55.434;38.520;2022-09-30T02:30:08;100227.28;;;8.63;100.00
47761;BME280;33524;55.434;38.520;2022-09-30T02:32:39;100232.84;;;8.59;100.00
47761;BME280;33524;55.434;38.520;2022-09-30T02:35:13;100219.91;;;8.56;100.00
47761;BME280;33524;55.434;38.520;2022-09-30T02:37:44;100224.34;;;8.55;100.00
47761;BME280;33524;55.434;38.520;2022-09-30T02:40:23;100223.06;;;8.48;100.00
47761;BME280;33524;55.434;38.520;2022-09-30T02:42:53;100220.47;;;8.48;100.00
47761;BME280;33524;55.434;38.520;2022-09-30T02:45:21;100229.06;;;8.50;100.00
47761;BME280;33524;55.434;38.520;2022-09-30T02:55:48;100229.88;;;8.51;100.00
47761;BME280;33524;55.434;38.520;2022-09-30T02:58:22;100221.19;;;8.50;100.00
47761;BME280;33524;55.434;38.520;2022-09-30T03:00:52;100217.84;;;8.48;100.00
47761;BME280;33524;55.434;38.520;2022-09-30T03:06:08;100218.75;;;8.47;100.00
47761;BME280;33524;55.434;38.520;2022-09-30T03:08:36;100219.91;;;8.43;100.00
47761;BME280;33524;55.434;38.520;2022-09-30T03:11:03;100224.31;;;8.42;100.00
47761;BME280;33524;55.434;38.520;2022-09-30T03:19:02;100227.97;;;8.40;100.00
47761;BME280;33524;55.434;38.520;2022-09-30T03:21:47;100222.16;;;8.35;100.00
47761;BME280;33524;55.434;38.520;2022-09-30T03:30:06;100225.34;;;8.40;100.00
47761;BME280;33524;55.434;38.520;2022-09-30T03:35:17;100228.34;;;8.34;100.00
47761;BME280;33524;55.434;38.520;2022-09-30T03:37:55;100227.63;;;8.32;100.00
47761;BME280;33524;55.434;38.520;2022-09-30T03:45:56;100238.62;;;8.37;100.00
47761;BME280;33524;55.434;38.520;2022-09-30T03:48:28;100238.62;;;8.37;100.00
47761;BME280;33524;55.434;38.520;2022-09-30T03:50:57;100245.38;;;8.41;100.00
47761;BME280;33524;55.434;38.520;2022-09-30T03:53:25;100242.66;;;8.42;100.00
47761;BME280;33524;55.434;38.520;2022-09-30T03:55:54;100244.56;;;8.53;100.00
47761;BME280;33524;55.434;38.520;2022-09-30T03:58:22;100244.78;;;8.50;100.00
47761;BME280;33524;55.434;38.520;2022-09-30T04:00:51;100240.47;;;8.49;100.00
47761;BME280;33524;55.434;38.520;2022-09-30T04:03:23;100238.72;;;8.50;100.00
47761;BME280;33524;55.434;38.520;2022-09-30T04:05:53;100252.66;;;8.50;100.00
47761;BME280;33524;55.434;38.520;2022-09-30T04:08:21;100252.75;;;8.61;100.00
47761;BME280;33524;55.434;38.520;2022-09-30T04:10:49;100256.12;;;8.63;100.00
47761;BME280;33524;55.434;38.520;2022-09-30T04:13:17;100247.53;;;8.74;100.00
47761;BME280;33524;55.434;38.520;2022-09-30T04:15:50;100259.62;;;8.77;100.00
47761;BME280;33524;55.434;38.520;2022-09-30T04:18:19;100250.19;;;8.87;100.00
47761;BME280;33524;55.434;38.520;2022-09-30T04:20:46;100245.78;;;9.00;100.00
47761;BME280;33524;55.434;38.520;2022-09-30T04:23:14;100247.47;;;9.01;100.00
47761;BME280;33524;55.434;38.520;2022-09-30T04:25:42;100251.13;;;8.99;100.00
47761;BME280;33524;55.434;38.520;2022-09-30T04:28:10;100245.13;;;8.97;100.00
47761;BME280;33524;55.434;38.520;2022-09-30T04:30:37;100251.56;;;9.05;100.00
47761;BME280;33524;55.434;38.520;2022-09-30T04:33:07;100255.94;;;9.05;100.00
47761;BME280;33524;55.434;38.520;2022-09-30T04:35:35;100253.22;;;9.06;100.00
47761;BME280;33524;55.434;38.520;2022-09-30T04:38:21;100257.53;;;9.07;100.00
47761;BME280;33524;55.434;38.520;2022-09-30T04:40:51;100255.53;;;9.11;100.00
47761;BME280;33524;55.434;38.520;2022-09-30T04:43:18;100257.53;;;9.20;100.00
47761;BME280;33524;55.434;38.520;2022-09-30T04:45:47;100258.03;;;9.25;100.00
47761;BME280;33524;55.434;38.520;2022-09-30T04:48:32;100249.84;;;9.30;100.00
47761;BME280;33524;55.434;38.520;2022-09-30T04:50:59;100245.31;;;9.32;100.00
47761;BME280;33524;55.434;38.520;2022-09-30T04:53:27;100242.09;;;9.28;100.00
47761;BME280;33524;55.434;38.520;2022-09-30T04:55:59;100245.75;;;9.39;97.00
47761;BME280;33524;55.434;38.520;2022-09-30T04:58:45;100242.56;;;9.46;98.80
47761;BME280;33524;55.434;38.520;2022-09-30T05:01:13;100237.88;;;9.39;99.58
47761;BME280;33524;55.434;38.520;2022-09-30T05:03:42;100239.97;;;9.34;100.00
47761;BME280;33524;55.434;38.520;2022-09-30T05:06:10;100236.28;;;9.36;100.00
47761;BME280;33524;55.434;38.520;2022-09-30T05:08:38;100232.09;;;9.34;100.00
47761;BME280;33524;55.434;38.520;2022-09-30T05:11:13;100222.94;;;9.52;95.94
47761;BME280;33524;55.434;38.520;2022-09-30T05:13:41;100226.50;;;9.64;95.73
47761;BME280;33524;55.434;38.520;2022-09-30T05:16:09;100232.25;;;9.69;95.16
47761;BME280;33524;55.434;38.520;2022-09-30T05:18:37;100228.56;;;9.72;99.08
47761;BME280;33524;55.434;38.520;2022-09-30T05:21:07;100231.59;;;9.78;95.93
47761;BME280;33524;55.434;38.520;2022-09-30T05:23:34;100221.88;;;9.92;93.43
47761;BME280;33524;55.434;38.520;2022-09-30T05:26:02;100223.84;;;10.01;95.29
47761;BME280;33524;55.434;38.520;2022-09-30T05:28:35;100221.94;;;10.03;94.05
47761;BME280;33524;55.434;38.520;2022-09-30T05:31:03;100237.84;;;10.13;94.87
47761;BME280;33524;55.434;38.520;2022-09-30T05:33:32;100241.38;;;10.24;92.65
47761;BME280;33524;55.434;38.520;2022-09-30T05:36:02;100239.44;;;10.39;87.70
47761;BME280;33524;55.434;38.520;2022-09-30T05:38:30;100241.03;;;10.42;87.58
47761;BME280;33524;55.434;38.520;2022-09-30T05:40:57;100248.50;;;10.35;90.84
47761;BME280;33524;55.434;38.520;2022-09-30T05:43:25;100256.91;;;10.40;93.26
47761;BME280;33524;55.434;38.520;2022-09-30T05:45:53;100259.00;;;10.59;86.33
47761;BME280;33524;55.434;38.520;2022-09-30T05:48:22;100254.91;;;10.55;89.27
47761;BME280;33524;55.434;38.520;2022-09-30T05:50:53;100263.53;;;10.57;89.95
47761;BME280;33524;55.434;38.520;2022-09-30T05:53:21;100262.62;;;10.69;87.39
47761;BME280;33524;55.434;38.520;2022-09-30T05:55:50;100275.50;;;10.61;90.20
47761;BME280;33524;55.434;38.520;2022-09-30T05:58:18;100270.53;;;10.81;88.37
47761;BME280;33524;55.434;38.520;2022-09-30T06:00:47;100267.69;;;10.84;89.97
47761;BME280;33524;55.434;38.520;2022-09-30T06:03:16;100263.59;;;10.91;90.46
47761;BME280;33524;55.434;38.520;2022-09-30T06:05:44;100261.75;;;11.04;88.82
47761;BME280;33524;55.434;38.520;2022-09-30T06:08:13;100262.22;;;10.98;93.86
47761;BME280;33524;55.434;38.520;2022-09-30T06:10:42;100264.50;;;11.37;87.33
47761;BME280;33524;55.434;38.520;2022-09-30T06:13:10;100261.72;;;11.83;83.68
47761;BME280;33524;55.434;38.520;2022-09-30T06:15:37;100259.72;;;12.30;78.09
47761;BME280;33524;55.434;38.520;2022-09-30T06:18:08;100256.09;;;12.31;79.93
47761;BME280;33524;55.434;38.520;2022-09-30T06:20:38;100258.00;;;12.41;78.51
47761;BME280;33524;55.434;38.520;2022-09-30T06:23:06;100262.50;;;12.50;81.98
47761;BME280;33524;55.434;38.520;2022-09-30T06:25:34;100261.44;;;12.74;76.71
47761;BME280;33524;55.434;38.520;2022-09-30T06:28:01;100255.56;;;12.91;75.85
47761;BME280;33524;55.434;38.520;2022-09-30T06:30:28;100257.81;;;12.96;76.20
47761;BME280;33524;55.434;38.520;2022-09-30T06:33:01;100249.97;;;12.84;76.95
47761;BME280;33524;55.434;38.520;2022-09-30T06:35:29;100263.56;;;12.80;77.28
47761;BME280;33524;55.434;38.520;2022-09-30T06:37:56;100262.50;;;12.71;77.64
47761;BME280;33524;55.434;38.520;2022-09-30T06:40:24;100265.34;;;12.58;78.32
47761;BME280;33524;55.434;38.520;2022-09-30T06:42:56;100259.72;;;12.30;79.82
47761;BME280;33524;55.434;38.520;2022-09-30T06:45:25;100261.03;;;12.36;79.55
47761;BME280;33524;55.434;38.520;2022-09-30T06:47:59;100255.41;;;12.50;78.70
47761;BME280;33524;55.434;38.520;2022-09-30T06:50:31;100247.75;;;12.47;80.05
47761;BME280;33524;55.434;38.520;2022-09-30T06:52:59;100253.13;;;12.57;79.38
47761;BME280;33524;55.434;38.520;2022-09-30T06:55:28;100248.28;;;13.04;76.65
47761;BME280;33524;55.434;38.520;2022-09-30T06:57:56;100244.06;;;13.23;76.00
47761;BME280;33524;55.434;38.520;2022-09-30T07:00:25;100247.78;;;13.10;77.21
47761;BME280;33524;55.434;38.520;2022-09-30T07:02:54;100247.78;;;13.41;75.48
47761;BME280;33524;55.434;38.520;2022-09-30T07:05:22;100250.56;;;13.40;76.32
47761;BME280;33524;55.434;38.520;2022-09-30T07:07:52;100255.13;;;13.68;74.93
47761;BME280;33524;55.434;38.520;2022-09-30T07:10:20;100256.16;;;13.97;74.05
47761;BME280;33524;55.434;38.520;2022-09-30T07:12:48;100260.09;;;14.31;73.48
47761;BME280;33524;55.434;38.520;2022-09-30T07:15:17;100251.03;;;14.53;72.45
47761;BME280;33524;55.434;38.520;2022-09-30T07:17:50;100247.00;;;14.79;71.61
47761;BME280;33524;55.434;38.520;2022-09-30T07:20:18;100248.50;;;14.91;71.39
47761;BME280;33524;55.434;38.520;2022-09-30T07:22:45;100252.88;;;14.72;73.26
47761;BME280;33524;55.434;38.520;2022-09-30T07:25:16;100243.22;;;14.71;72.54
47761;BME280;33524;55.434;38.520;2022-09-30T07:27:44;100247.13;;;14.77;72.45
47761;BME280;33524;55.434;38.520;2022-09-30T07:30:12;100235.12;;;14.92;72.02
47761;BME280;33524;55.434;38.520;2022-09-30T07:32:53;100233.44;;;14.91;72.21
47761;BME280;33524;55.434;38.520;2022-09-30T07:35:20;100235.06;;;15.12;71.34
47761;BME280;33524;55.434;38.520;2022-09-30T07:37:48;100239.69;;;15.10;71.88
47761;BME280;33524;55.434;38.520;2022-09-30T07:40:16;100235.62;;;15.43;70.74
47761;BME280;33524;55.434;38.520;2022-09-30T07:42:44;100232.53;;;15.48;70.84
47761;BME280;33524;55.434;38.520;2022-09-30T07:45:12;100233.13;;;15.42;71.38
47761;BME280;33524;55.434;38.520;2022-09-30T07:47:45;100234.59;;;15.54;70.63
47761;BME280;33524;55.434;38.520;2022-09-30T07:50:19;100233.87;;;15.34;71.05
47761;BME280;33524;55.434;38.520;2022-09-30T07:52:47;100234.78;;;15.80;70.24
47761;BME280;33524;55.434;38.520;2022-09-30T07:55:15;100232.78;;;16.28;68.98
47761;BME280;33524;55.434;38.520;2022-09-30T07:57:42;100237.53;;;16.60;68.01
47761;BME280;33524;55.434;38.520;2022-09-30T08:00:10;100238.72;;;16.66;67.95
47761;BME280;33524;55.434;38.520;2022-09-30T08:02:58;100240.41;;;16.85;67.15
47761;BME280;33524;55.434;38.520;2022-09-30T08:05:26;100235.19;;;17.01;66.70
47761;BME280;33524;55.434;38.520;2022-09-30T08:07:53;100234.13;;;16.94;66.31
47761;BME280;33524;55.434;38.520;2022-09-30T08:10:21;100233.41;;;16.84;66.14
47761;BME280;33524;55.434;38.520;2022-09-30T08:12:49;100241.13;;;16.95;68.27
47761;BME280;33524;55.434;38.520;2022-09-30T08:15:22;100235.91;;;16.85;67.41
47761;BME280;33524;55.434;38.520;2022-09-30T08:17:49;100239.03;;;16.81;66.86
47761;BME280;33524;55.434;38.520;2022-09-30T08:20:17;100232.09;;;16.44;67.24
47761;BME280;33524;55.434;38.520;2022-09-30T08:22:52;100237.53;;;17.04;68.66
47761;BME280;33524;55.434;38.520;2022-09-30T08:25:21;100237.31;;;16.80;68.41
47761;BME280;33524;55.434;38.520;2022-09-30T08:28:14;100237.13;;;17.25;67.55
47761;BME280;33524;55.434;38.520;2022-09-30T08:30:41;100235.28;;;16.91;68.03
47761;BME280;33524;55.434;38.520;2022-09-30T08:33:09;100236.38;;;17.07;68.32
47761;BME280;33524;55.434;38.520;2022-09-30T08:35:37;100234.88;;;16.60;69.23
47761;BME280;33524;55.434;38.520;2022-09-30T08:38:04;100233.31;;;16.31;69.65
47761;BME280;33524;55.434;38.520;2022-09-30T08:40:33;100240.47;;;16.57;68.46
47761;BME280;33524;55.434;38.520;2022-09-30T08:45:49;100240.56;;;17.18;68.33
47761;BME280;33524;55.434;38.520;2022-09-30T08:51:15;100233.50;;;17.00;67.48
47761;BME280;33524;55.434;38.520;2022-09-30T08:53:52;100241.06;;;16.87;68.19
47761;BME280;33524;55.434;38.520;2022-09-30T08:56:25;100236.38;;;17.41;69.06
47761;BME280;33524;55.434;38.520;2022-09-30T08:59:07;100234.81;;;16.96;68.40
47761;BME280;33524;55.434;38.520;2022-09-30T09:01:45;100235.12;;;16.93;70.45
47761;BME280;33524;55.434;38.520;2022-09-30T09:04:14;100237.72;;;16.67;69.84
47761;BME280;33524;55.434;38.520;2022-09-30T09:06:57;100234.19;;;17.02;68.47
47761;BME280;33524;55.434;38.520;2022-09-30T09:09:50;100239.44;;;16.50;71.40
47761;BME280;33524;55.434;38.520;2022-09-30T09:12:26;100239.25;;;16.69;71.92
47761;BME280;33524;55.434;38.520;2022-09-30T09:19:56;100234.91;;;17.12;71.20
47761;BME280;33524;55.434;38.520;2022-09-30T09:22:25;100239.22;;;17.13;70.64
47761;BME280;33524;55.434;38.520;2022-09-30T09:24:54;100242.91;;;16.68;70.38
47761;BME280;33524;55.434;38.520;2022-09-30T09:27:29;100233.41;;;17.10;71.20
47761;BME280;33524;55.434;38.520;2022-09-30T09:30:13;100242.38;;;17.43;70.60
47761;BME280;33524;55.434;38.520;2022-09-30T09:32:41;100234.94;;;17.21;71.14
47761;BME280;33524;55.434;38.520;2022-09-30T09:41:06;100227.97;;;17.20;68.76
47761;BME280;33524;55.434;38.520;2022-09-30T09:44:00;100225.19;;;16.95;69.65
47761;BME280;33524;55.434;38.520;2022-09-30T09:46:37;100222.06;;;17.34;68.37
47761;BME280;33524;55.434;38.520;2022-09-30T09:52:12;100219.09;;;17.37;70.74
47761;BME280;33524;55.434;38.520;2022-09-30T09:54:53;100216.41;;;17.29;71.14
47761;BME280;33524;55.434;38.520;2022-09-30T09:57:25;100218.47;;;17.51;70.60
47761;BME280;33524;55.434;38.520;2022-09-30T10:03:01;100218.06;;;17.38;70.76
47761;BME280;33524;55.434;38.520;2022-09-30T10:05:33;100211.06;;;16.94;69.96
47761;BME280;33524;55.434;38.520;2022-09-30T10:08:17;100221.47;;;16.88;70.62
47761;BME280;33524;55.434;38.520;2022-09-30T10:10:49;100206.13;;;17.00;70.76
47761;BME280;33524;55.434;38.520;2022-09-30T10:15:48;100222.88;;;17.00;73.22
47761;BME280;33524;55.434;38.520;2022-09-30T10:18:34;100236.66;;;16.96;73.10
47761;BME280;33524;55.434;38.520;2022-09-30T10:21:06;100233.56;;;16.64;73.00
47761;BME280;33524;55.434;38.520;2022-09-30T10:23:37;100232.28;;;16.68;73.41
47761;BME280;33524;55.434;38.520;2022-09-30T10:28:46;100222.44;;;16.61;73.02
47761;BME280;33524;55.434;38.520;2022-09-30T10:31:24;100222.22;;;16.54;74.33
47761;BME280;33524;55.434;38.520;2022-09-30T10:36:28;100230.13;;;16.46;74.91
47761;BME280;33524;55.434;38.520;2022-09-30T10:39:06;100232.38;;;16.59;74.19
47761;BME280;33524;55.434;38.520;2022-09-30T10:41:36;100227.59;;;16.26;73.45
47761;BME280;33524;55.434;38.520;2022-09-30T10:44:06;100232.31;;;16.32;74.02
47761;BME280;33524;55.434;38.520;2022-09-30T10:46:39;100225.66;;;16.72;73.81
47761;BME280;33524;55.434;38.520;2022-09-30T10:49:09;100229.97;;;16.73;72.75
47761;BME280;33524;55.434;38.520;2022-09-30T10:51:40;100228.81;;;16.94;72.82
47761;BME280;33524;55.434;38.520;2022-09-30T10:54:32;100225.66;;;17.25;71.90
47761;BME280;33524;55.434;38.520;2022-09-30T10:57:00;100229.53;;;17.30;71.47
47761;BME280;33524;55.434;38.520;2022-09-30T10:59:35;100225.78;;;17.49;70.43
47761;BME280;33524;55.434;38.520;2022-09-30T11:02:12;100223.87;;;16.99;72.06
47761;BME280;33524;55.434;38.520;2022-09-30T11:04:49;100227.03;;;17.03;72.59
47761;BME280;33524;55.434;38.520;2022-09-30T11:07:30;100227.66;;;17.23;72.19
47761;BME280;33524;55.434;38.520;2022-09-30T11:10:02;100238.75;;;17.52;71.14
47761;BME280;33524;55.434;38.520;2022-09-30T11:12:54;100226.47;;;17.51;71.04
47761;BME280;33524;55.434;38.520;2022-09-30T11:15:30;100223.69;;;17.78;70.16
47761;BME280;33524;55.434;38.520;2022-09-30T11:18:06;100236.97;;;18.20;69.10
47761;BME280;33524;55.434;38.520;2022-09-30T11:20:44;100232.66;;;18.35;68.39
47761;BME280;33524;55.434;38.520;2022-09-30T11:36:47;100235.31;;;18.11;68.62
47761;BME280;33524;55.434;38.520;2022-09-30T11:41:50;100230.16;;;18.83;67.60
47761;BME280;33524;55.434;38.520;2022-09-30T11:44:33;100227.00;;;18.47;68.92
47761;BME280;33524;55.434;38.520;2022-09-30T11:52:37;100226.47;;;18.27;69.73
47761;BME280;33524;55.434;38.520;2022-09-30T11:57:56;100228.62;;;17.99;69.61
47761;BME280;33524;55.434;38.520;2022-09-30T12:00:48;100229.66;;;18.22;69.95
47761;BME280;33524;55.434;38.520;2022-09-30T12:03:19;100226.63;;;18.91;67.68
47761;BME280;33524;55.434;38.520;2022-09-30T12:05:53;100230.66;;;18.79;65.47
47761;BME280;33524;55.434;38.520;2022-09-30T12:08:43;100230.16;;;18.50;68.03
47761;BME280;33524;55.434;38.520;2022-09-30T12:11:32;100231.97;;;18.83;67.44
47761;BME280;33524;55.434;38.520;2022-09-30T12:14:04;100231.81;;;18.35;68.55
47761;BME280;33524;55.434;38.520;2022-09-30T12:16:33;100234.31;;;18.37;68.39
47761;BME280;33524;55.434;38.520;2022-09-30T12:24:42;100233.94;;;17.99;69.87
47761;BME280;33524;55.434;38.520;2022-09-30T12:30:18;100235.66;;;18.32;68.67
47761;BME280;33524;55.434;38.520;2022-09-30T12:40:35;100250.41;;;17.60;70.81
47761;BME280;33524;55.434;38.520;2022-09-30T12:48:09;100253.13;;;17.68;70.38
47761;BME280;33524;55.434;38.520;2022-09-30T12:50:46;100256.56;;;17.26;71.87
47761;BME280;33524;55.434;38.520;2022-09-30T12:53:17;100252.19;;;17.43;71.23
47761;BME280;33524;55.434;38.520;2022-09-30T12:55:45;100247.22;;;17.22;71.12
47761;BME280;33524;55.434;38.520;2022-09-30T13:01:00;100249.34;;;17.10;72.41
47761;BME280;33524;55.434;38.520;2022-09-30T13:03:29;100260.81;;;17.10;71.50
47761;BME280;33524;55.434;38.520;2022-09-30T13:06:09;100256.66;;;17.42;71.07
47761;BME280;33524;55.434;38.520;2022-09-30T13:08:44;100250.53;;;17.50;70.26
47761;BME280;33524;55.434;38.520;2022-09-30T13:11:27;100257.75;;;18.25;68.59
47761;BME280;33524;55.434;38.520;2022-09-30T13:14:01;100242.47;;;19.48;64.94
47761;BME280;33524;55.434;38.520;2022-09-30T13:19:19;100228.53;;;20.01;62.02
47761;BME280;33524;55.434;38.520;2022-09-30T13:21:47;100238.13;;;19.55;63.36
47761;BME280;33524;55.434;38.520;2022-09-30T13:24:18;100240.16;;;18.98;65.18
47761;BME280;33524;55.434;38.520;2022-09-30T13:26:45;100250.28;;;18.37;67.32
47761;BME280;33524;55.434;38.520;2022-09-30T13:34:21;100262.94;;;17.67;70.17
47761;BME280;33524;55.434;38.520;2022-09-30T13:42:01;100253.44;;;17.30;72.05
47761;BME280;33524;55.434;38.520;2022-09-30T13:44:34;100256.50;;;17.18;72.26
47761;BME280;33524;55.434;38.520;2022-09-30T13:47:16;100257.41;;;17.00;73.49
47761;BME280;33524;55.434;38.520;2022-09-30T13:49:59;100256.53;;;16.91;74.01
47761;BME280;33524;55.434;38.520;2022-09-30T13:52:33;100259.44;;;17.06;73.14
47761;BME280;33524;55.434;38.520;2022-09-30T13:55:24;100256.88;;;17.23;72.50
47761;BME280;33524;55.434;38.520;2022-09-30T13:57:57;100268.81;;;16.92;74.28
47761;BME280;33524;55.434;38.520;2022-09-30T14:18:56;100286.38;;;16.31;76.03
47761;BME280;33524;55.434;38.520;2022-09-30T14:21:47;100287.75;;;16.36;75.80
47761;BME280;33524;55.434;38.520;2022-09-30T14:29:45;100300.84;;;15.91;77.83
47761;BME280;33524;55.434;38.520;2022-09-30T14:32:37;100305.47;;;16.17;76.34
47761;BME280;33524;55.434;38.520;2022-09-30T14:35:07;100299.13;;;16.46;74.83
47761;BME280;33524;55.434;38.520;2022-09-30T14:37:43;100298.16;;;16.01;77.00
47761;BME280;33524;55.434;38.520;2022-09-30T14:40:15;100306.16;;;16.19;75.88
47761;BME280;33524;55.434;38.520;2022-09-30T14:42:44;100308.31;;;16.06;76.81
47761;BME280;33524;55.434;38.520;2022-09-30T14:45:17;100308.22;;;15.98;77.55
47761;BME280;33524;55.434;38.520;2022-09-30T14:47:46;100318.66;;;15.71;79.10
47761;BME280;33524;55.434;38.520;2022-09-30T14:50:16;100317.31;;;15.58;79.52
47761;BME280;33524;55.434;38.520;2022-09-30T14:52:47;100315.19;;;15.71;78.05
47761;BME280;33524;55.434;38.520;2022-09-30T14:57:50;100316.47;;;15.67;78.91
47761;BME280;33524;55.434;38.520;2022-09-30T15:00:28;100317.19;;;15.59;78.63
47761;BME280;33524;55.434;38.520;2022-09-30T15:02:57;100321.13;;;15.45;80.52
47761;BME280;33524;55.434;38.520;2022-09-30T15:05:25;100320.31;;;15.82;77.79
47761;BME280;33524;55.434;38.520;2022-09-30T15:07:54;100317.78;;;15.43;80.56
47761;BME280;33524;55.434;38.520;2022-09-30T15:10:22;100325.25;;;15.30;80.04
47761;BME280;33524;55.434;38.520;2022-09-30T15:12:50;100328.50;;;14.65;85.41
47761;BME280;33524;55.434;38.520;2022-09-30T15:15:23;100324.31;;;14.92;83.05
47761;BME280;33524;55.434;38.520;2022-09-30T15:17:51;100333.81;;;14.56;85.32
47761;BME280;33524;55.434;38.520;2022-09-30T15:20:27;100337.50;;;14.53;85.71
47761;BME280;33524;55.434;38.520;2022-09-30T15:22:57;100330.69;;;14.31;88.04
47761;BME280;33524;55.434;38.520;2022-09-30T15:25:27;100340.44;;;14.30;87.79
47761;BME280;33524;55.434;38.520;2022-09-30T15:27:56;100329.13;;;14.19;88.52
47761;BME280;33524;55.434;38.520;2022-09-30T15:30:25;100331.03;;;14.77;83.53
47761;BME280;33524;55.434;38.520;2022-09-30T15:32:58;100331.28;;;14.73;82.87
47761;BME280;33524;55.434;38.520;2022-09-30T15:35:27;100324.56;;;14.40;85.23
47761;BME280;33524;55.434;38.520;2022-09-30T15:38:05;100329.31;;;14.37;86.24
47761;BME280;33524;55.434;38.520;2022-09-30T15:40:34;100329.44;;;14.54;84.50
47761;BME280;33524;55.434;38.520;2022-09-30T15:43:28;100323.22;;;14.75;83.55
47761;BME280;33524;55.434;38.520;2022-09-30T15:46:15;100318.75;;;14.95;80.75
47761;BME280;33524;55.434;38.520;2022-09-30T15:48:44;100318.47;;;14.69;82.63
47761;BME280;33524;55.434;38.520;2022-09-30T15:51:29;100318.22;;;14.62;83.40
47761;BME280;33524;55.434;38.520;2022-09-30T15:53:57;100329.88;;;14.50;84.90
47761;BME280;33524;55.434;38.520;2022-09-30T15:56:31;100322.63;;;14.52;85.68